sensor_id;sensor_type;location;lat;lon;timestamp;pressure;altitude;pressure_sealevel;temperature;humidity
9141;BME280;46330;50.822;7.126;2023-03-21T00:00:54;101108.16;;;9.63;77.38
9141;BME280;46330;50.822;7.126;2023-03-21T00:03:22;101109.88;;;9.65;78.01
9141;BME280;46330;50.822;7.126;2023-03-21T00:05:50;101102.94;;;9.64;78.17
9141;BME280;46330;50.822;7.126;2023-03-21T00:08:20;101107.28;;;9.64;79.00
9141;BME280;46330;50.822;7.126;2023-03-21T00:10:56;101102.94;;;9.63;78.78
9141;BME280;46330;50.822;7.126;2023-03-21T00:13:24;101094.25;;;9.61;78.09
9141;BME280;46330;50.822;7.126;2023-03-21T00:15:54;101095.16;;;9.58;78.57
9141;BME280;46330;50.822;7.126;2023-03-21T00:18:44;101096.91;;;9.55;79.14
9141;BME280;46330;50.822;7.126;2023-03-21T00:21:15;101091.69;;;9.55;79.00
9141;BME280;46330;50.822;7.126;2023-03-21T00:24:04;101092.56;;;9.54;78.77
9141;BME280;46330;50.822;7.126;2023-03-21T00:26:34;101091.66;;;9.56;79.13
9141;BME280;46330;50.822;7.126;2023-03-21T00:29:03;101089.06;;;9.58;79.03
9141;BME280;46330;50.822;7.126;2023-03-21T00:31:31;101084.75;;;9.52;79.24
9141;BME280;46330;50.822;7.126;2023-03-21T00:34:00;101083.00;;;9.51;79.11
9141;BME280;46330;50.822;7.126;2023-03-21T00:36:29;101080.44;;;9.48;78.99
9141;BME280;46330;50.822;7.126;2023-03-21T00:38:57;101082.13;;;9.54;79.13
9141;BME280;46330;50.822;7.126;2023-03-21T00:41:26;101066.44;;;9.54;78.66
9141;BME280;46330;50.822;7.126;2023-03-21T00:44:10;101071.72;;;9.48;78.74
9141;BME280;46330;50.822;7.126;2023-03-21T00:46:41;101076.91;;;9.51;79.48
9141;BME280;46330;50.822;7.126;2023-03-21T00:49:29;101070.81;;;9.50;78.79
9141;BME280;46330;50.822;7.126;2023-03-21T00:52:03;101063.84;;;9.54;78.84
9141;BME280;46330;50.822;7.126;2023-03-21T00:54:43;101061.28;;;9.49;78.85
9141;BME280;46330;50.822;7.126;2023-03-21T00:57:11;101060.34;;;9.53;79.55
9141;BME280;46330;50.822;7.126;2023-03-21T00:59:41;101063.00;;;9.50;79.16
9141;BME280;46330;50.822;7.126;2023-03-21T01:02:08;101053.44;;;9.49;79.47
9141;BME280;46330;50.822;7.126;2023-03-21T01:04:40;101048.19;;;9.51;79.25
9141;BME280;46330;50.822;7.126;2023-03-21T01:07:09;101059.44;;;9.56;78.79
9141;BME280;46330;50.822;7.126;2023-03-21T01:09:37;101049.88;;;9.56;79.12
9141;BME280;46330;50.822;7.126;2023-03-21T01:12:05;101048.16;;;9.55;78.59
9141;BME280;46330;50.822;7.126;2023-03-21T01:14:35;101049.00;;;9.56;78.67
9141;BME280;46330;50.822;7.126;2023-03-21T01:17:05;101053.38;;;9.54;79.29
9141;BME280;46330;50.822;7.126;2023-03-21T01:19:33;101044.69;;;9.55;79.42
9141;BME280;46330;50.822;7.126;2023-03-21T01:22:17;101042.03;;;9.56;78.91
9141;BME280;46330;50.822;7.126;2023-03-21T01:24:46;101039.47;;;9.53;79.48
9141;BME280;46330;50.822;7.126;2023-03-21T01:27:34;101035.97;;;9.53;79.72
9141;BME280;46330;50.822;7.126;2023-03-21T01:30:02;101026.47;;;9.49;78.91
9141;BME280;46330;50.822;7.126;2023-03-21T01:32:44;101034.25;;;9.53;79.50
9141;BME280;46330;50.822;7.126;2023-03-21T01:35:12;101029.06;;;9.47;79.13
9141;BME280;46330;50.822;7.126;2023-03-21T01:37:40;101035.97;;;9.53;78.92
9141;BME280;46330;50.822;7.126;2023-03-21T01:40:11;101035.97;;;9.53;80.00
9141;BME280;46330;50.822;7.126;2023-03-21T01:42:43;101025.56;;;9.51;79.83
9141;BME280;46330;50.822;7.126;2023-03-21T01:48:14;101021.19;;;9.53;80.13
9141;BME280;46330;50.822;7.126;2023-03-21T01:50:48;101029.06;;;9.47;79.84
9141;BME280;46330;50.822;7.126;2023-03-21T01:53:35;101017.75;;;9.48;80.39
9141;BME280;46330;50.822;7.126;2023-03-21T01:56:10;101030.81;;;9.48;79.97
9141;BME280;46330;50.822;7.126;2023-03-21T01:58:47;101017.75;;;9.48;79.74
9141;BME280;46330;50.822;7.126;2023-03-21T02:01:44;101017.72;;;9.51;79.89
9141;BME280;46330;50.822;7.126;2023-03-21T02:04:13;101017.69;;;9.53;80.33
9141;BME280;46330;50.822;7.126;2023-03-21T02:06:45;101014.22;;;9.54;80.03
9141;BME280;46330;50.822;7.126;2023-03-21T02:09:30;101009.03;;;9.52;80.53
9141;BME280;46330;50.822;7.126;2023-03-21T02:11:59;101009.91;;;9.51;79.95
9141;BME280;46330;50.822;7.126;2023-03-21T02:14:31;101002.94;;;9.52;79.98
9141;BME280;46330;50.822;7.126;2023-03-21T02:17:09;101002.06;;;9.51;79.96
9141;BME280;46330;50.822;7.126;2023-03-21T02:23:11;100984.72;;;9.44;79.85
9141;BME280;46330;50.822;7.126;2023-03-21T02:28:39;100981.19;;;9.50;80.41
9141;BME280;46330;50.822;7.126;2023-03-21T02:31:21;100972.56;;;9.40;80.50
9141;BME280;46330;50.822;7.126;2023-03-21T02:34:29;100971.69;;;9.41;80.73
9141;BME280;46330;50.822;7.126;2023-03-21T02:37:12;100967.34;;;9.40;81.22
9141;BME280;46330;50.822;7.126;2023-03-21T02:39:58;100963.91;;;9.35;81.19
9141;BME280;46330;50.822;7.126;2023-03-21T02:42:31;100964.75;;;9.39;81.80
9141;BME280;46330;50.822;7.126;2023-03-21T02:45:12;100965.66;;;9.36;81.25
9141;BME280;46330;50.822;7.126;2023-03-21T02:47:49;100961.31;;;9.37;81.69
9141;BME280;46330;50.822;7.126;2023-03-21T02:50:23;100964.81;;;9.33;81.98
9141;BME280;46330;50.822;7.126;2023-03-21T02:52:57;100968.28;;;9.32;81.95
9141;BME280;46330;50.822;7.126;2023-03-21T02:55:30;100953.50;;;9.32;81.81
9141;BME280;46330;50.822;7.126;2023-03-21T02:58:02;100967.44;;;9.31;81.68
9141;BME280;46330;50.822;7.126;2023-03-21T03:00:45;100966.53;;;9.35;82.05
9141;BME280;46330;50.822;7.126;2023-03-21T03:03:25;100956.97;;;9.34;81.86
9141;BME280;46330;50.822;7.126;2023-03-21T03:06:07;100952.66;;;9.30;82.61
9141;BME280;46330;50.822;7.126;2023-03-21T03:08:50;100952.69;;;9.26;82.66
9141;BME280;46330;50.822;7.126;2023-03-21T03:11:30;100948.38;;;9.23;82.49
9141;BME280;46330;50.822;7.126;2023-03-21T03:14:30;100950.09;;;9.23;83.31
9141;BME280;46330;50.822;7.126;2023-03-21T03:17:34;100954.53;;;9.14;83.59
9141;BME280;46330;50.822;7.126;2023-03-21T03:20:27;100947.56;;;9.16;83.79
9141;BME280;46330;50.822;7.126;2023-03-21T03:23:04;100948.44;;;9.17;83.48
9141;BME280;46330;50.822;7.126;2023-03-21T03:25:45;100947.56;;;9.16;83.63
9141;BME280;46330;50.822;7.126;2023-03-21T03:28:20;100945.00;;;9.10;83.91
9141;BME280;46330;50.822;7.126;2023-03-21T03:30:51;100938.91;;;9.11;84.05
9141;BME280;46330;50.822;7.126;2023-03-21T03:33:42;100936.25;;;9.17;84.33
9141;BME280;46330;50.822;7.126;2023-03-21T03:36:13;100935.41;;;9.14;84.15
9141;BME280;46330;50.822;7.126;2023-03-21T03:39:05;100935.41;;;9.12;84.27
9141;BME280;46330;50.822;7.126;2023-03-21T03:41:42;100930.25;;;9.08;84.47
9141;BME280;46330;50.822;7.126;2023-03-21T03:44:35;100931.97;;;9.07;84.42
9141;BME280;46330;50.822;7.126;2023-03-21T03:47:07;100930.22;;;9.09;84.53
9141;BME280;46330;50.822;7.126;2023-03-21T03:49:47;100924.16;;;9.07;84.39
9141;BME280;46330;50.822;7.126;2023-03-21T03:52:20;100927.59;;;9.09;84.67
9141;BME280;46330;50.822;7.126;2023-03-21T03:55:10;100928.50;;;9.07;85.31
9141;BME280;46330;50.822;7.126;2023-03-21T03:57:43;100929.41;;;9.06;84.72
9141;BME280;46330;50.822;7.126;2023-03-21T04:00:12;100922.41;;;9.06;85.03
9141;BME280;46330;50.822;7.126;2023-03-21T04:02:42;100929.41;;;9.03;84.84
9141;BME280;46330;50.822;7.126;2023-03-21T04:05:15;100922.44;;;9.05;84.59
9141;BME280;46330;50.822;7.126;2023-03-21T04:07:47;100929.41;;;9.06;84.96
9141;BME280;46330;50.822;7.126;2023-03-21T04:10:18;100914.56;;;9.09;84.91
9141;BME280;46330;50.822;7.126;2023-03-21T04:12:49;100915.47;;;9.04;85.14
9141;BME280;46330;50.822;7.126;2023-03-21T04:15:39;100928.53;;;9.04;84.92
9141;BME280;46330;50.822;7.126;2023-03-21T04:18:12;100919.88;;;8.99;85.38
9141;BME280;46330;50.822;7.126;2023-03-21T04:20:41;100915.53;;;8.98;85.46
9141;BME280;46330;50.822;7.126;2023-03-21T04:23:11;100918.97;;;9.00;85.51
9141;BME280;46330;50.822;7.126;2023-03-21T04:25:44;100914.69;;;8.96;85.33
9141;BME280;46330;50.822;7.126;2023-03-21T04:28:30;100909.47;;;8.96;85.76
9141;BME280;46330;50.822;7.126;2023-03-21T04:31:15;100911.16;;;9.01;85.19
9141;BME280;46330;50.822;7.126;2023-03-21T04:33:54;100905.09;;;8.98;85.39
9141;BME280;46330;50.822;7.126;2023-03-21T04:36:23;100907.75;;;8.96;85.49
9141;BME280;46330;50.822;7.126;2023-03-21T04:39:00;100903.34;;;8.97;85.95
9141;BME280;46330;50.822;7.126;2023-03-21T04:41:31;100904.25;;;8.94;85.50
9141;BME280;46330;50.822;7.126;2023-03-21T04:44:01;100903.34;;;8.97;85.41
9141;BME280;46330;50.822;7.126;2023-03-21T04:46:28;100900.75;;;8.97;85.75
9141;BME280;46330;50.822;7.126;2023-03-21T04:48:56;100898.16;;;8.95;85.50
9141;BME280;46330;50.822;7.126;2023-03-21T04:51:24;100896.50;;;8.90;86.00
9141;BME280;46330;50.822;7.126;2023-03-21T04:53:52;100898.19;;;8.91;86.25
9141;BME280;46330;50.822;7.126;2023-03-21T04:56:23;100896.50;;;8.90;85.81
9141;BME280;46330;50.822;7.126;2023-03-21T04:58:58;100896.47;;;8.91;86.30
9141;BME280;46330;50.822;7.126;2023-03-21T05:01:32;100899.09;;;8.88;86.39
9141;BME280;46330;50.822;7.126;2023-03-21T05:04:02;100899.13;;;8.85;86.79
9141;BME280;46330;50.822;7.126;2023-03-21T05:06:33;100897.34;;;8.89;86.50
9141;BME280;46330;50.822;7.126;2023-03-21T05:09:02;100892.13;;;8.89;86.61
9141;BME280;46330;50.822;7.126;2023-03-21T05:11:35;100901.69;;;8.88;86.54
9141;BME280;46330;50.822;7.126;2023-03-21T05:14:04;100907.75;;;8.95;86.64
9141;BME280;46330;50.822;7.126;2023-03-21T05:16:34;100897.31;;;8.92;86.82
9141;BME280;46330;50.822;7.126;2023-03-21T05:19:04;100897.34;;;8.90;86.93
9141;BME280;46330;50.822;7.126;2023-03-21T05:21:38;100904.28;;;8.91;86.96
9141;BME280;46330;50.822;7.126;2023-03-21T05:24:26;100904.31;;;8.90;86.91
9141;BME280;46330;50.822;7.126;2023-03-21T05:26:54;100899.06;;;8.91;86.76
9141;BME280;46330;50.822;7.126;2023-03-21T05:29:30;100902.53;;;8.95;86.46
9141;BME280;46330;50.822;7.126;2023-03-21T05:32:05;100908.63;;;8.92;86.54
9141;BME280;46330;50.822;7.126;2023-03-21T05:34:34;100906.03;;;8.92;86.06
9141;BME280;46330;50.822;7.126;2023-03-21T05:37:01;100906.00;;;8.95;86.20
9141;BME280;46330;50.822;7.126;2023-03-21T05:39:41;100906.03;;;8.92;85.63
9141;BME280;46330;50.822;7.126;2023-03-21T05:42:16;100906.88;;;8.94;85.84
9141;BME280;46330;50.822;7.126;2023-03-21T05:44:45;100905.09;;;8.98;86.07
9141;BME280;46330;50.822;7.126;2023-03-21T05:47:18;100909.47;;;8.96;86.41
9141;BME280;46330;50.822;7.126;2023-03-21T05:49:46;100904.25;;;8.96;86.60
9141;BME280;46330;50.822;7.126;2023-03-21T05:52:15;100903.34;;;8.97;86.24
9141;BME280;46330;50.822;7.126;2023-03-21T05:54:44;100908.56;;;9.01;86.16
9141;BME280;46330;50.822;7.126;2023-03-21T05:57:13;100901.59;;;9.02;86.09
9141;BME280;46330;50.822;7.126;2023-03-21T06:00:08;100911.97;;;9.08;86.38
9141;BME280;46330;50.822;7.126;2023-03-21T06:02:53;100911.09;;;9.07;85.71
9141;BME280;46330;50.822;7.126;2023-03-21T06:05:40;100901.53;;;9.06;86.16
9141;BME280;46330;50.822;7.126;2023-03-21T06:08:15;100905.00;;;9.10;85.73
9141;BME280;46330;50.822;7.126;2023-03-21T06:10:45;100905.84;;;9.15;85.40
9141;BME280;46330;50.822;7.126;2023-03-21T06:13:12;100899.78;;;9.11;85.53
9141;BME280;46330;50.822;7.126;2023-03-21T06:15:41;100905.88;;;9.09;85.71
9141;BME280;46330;50.822;7.126;2023-03-21T06:18:17;100906.66;;;9.17;85.36
9141;BME280;46330;50.822;7.126;2023-03-21T06:21:03;100903.16;;;9.21;85.07
9141;BME280;46330;50.822;7.126;2023-03-21T06:23:31;100904.88;;;9.22;84.96
9141;BME280;46330;50.822;7.126;2023-03-21T06:25:59;100907.50;;;9.21;85.24
9141;BME280;46330;50.822;7.126;2023-03-21T06:28:27;100910.97;;;9.24;85.68
9141;BME280;46330;50.822;7.126;2023-03-21T06:30:55;100912.66;;;9.25;85.79
9141;BME280;46330;50.822;7.126;2023-03-21T06:33:26;100909.25;;;9.20;85.46
9141;BME280;46330;50.822;7.126;2023-03-21T06:35:56;100907.50;;;9.19;85.81
9141;BME280;46330;50.822;7.126;2023-03-21T06:38:24;100913.59;;;9.19;85.28
9141;BME280;46330;50.822;7.126;2023-03-21T06:40:52;100907.47;;;9.24;85.25
9141;BME280;46330;50.822;7.126;2023-03-21T06:43:23;100912.59;;;9.33;85.78
9141;BME280;46330;50.822;7.126;2023-03-21T06:45:51;100912.59;;;9.33;84.98
9141;BME280;46330;50.822;7.126;2023-03-21T06:48:19;100923.06;;;9.33;85.21
9141;BME280;46330;50.822;7.126;2023-03-21T06:50:51;100910.81;;;9.38;85.43
9141;BME280;46330;50.822;7.126;2023-03-21T06:53:23;100913.34;;;9.45;86.66
9141;BME280;46330;50.822;7.126;2023-03-21T06:56:25;100921.16;;;9.48;85.48
9141;BME280;46330;50.822;7.126;2023-03-21T06:58:53;100917.56;;;9.57;85.48
9141;BME280;46330;50.822;7.126;2023-03-21T07:01:39;100916.69;;;9.58;85.47
9141;BME280;46330;50.822;7.126;2023-03-21T07:04:08;100921.00;;;9.63;84.85
9141;BME280;46330;50.822;7.126;2023-03-21T07:06:39;100924.44;;;9.65;85.25
9141;BME280;46330;50.822;7.126;2023-03-21T07:09:07;100917.44;;;9.69;84.20
9141;BME280;46330;50.822;7.126;2023-03-21T07:11:36;100927.81;;;9.75;85.19
9141;BME280;46330;50.822;7.126;2023-03-21T07:14:04;100928.69;;;9.77;84.78
9141;BME280;46330;50.822;7.126;2023-03-21T07:16:33;100932.13;;;9.81;85.21
9141;BME280;46330;50.822;7.126;2023-03-21T07:19:01;100928.75;;;9.71;85.92
9141;BME280;46330;50.822;7.126;2023-03-21T07:21:29;100937.44;;;9.71;85.66
9141;BME280;46330;50.822;7.126;2023-03-21T07:23:59;100939.09;;;9.79;85.51
9141;BME280;46330;50.822;7.126;2023-03-21T07:26:29;100937.38;;;9.74;86.44
9141;BME280;46330;50.822;7.126;2023-03-21T07:28:57;100928.75;;;9.71;86.31
9141;BME280;46330;50.822;7.126;2023-03-21T07:31:26;100933.00;;;9.80;87.39
9141;BME280;46330;50.822;7.126;2023-03-21T07:33:54;100935.63;;;9.80;87.16
9141;BME280;46330;50.822;7.126;2023-03-21T07:36:22;100926.84;;;9.85;88.34
9141;BME280;46330;50.822;7.126;2023-03-21T07:38:50;100935.53;;;9.84;89.49
9141;BME280;46330;50.822;7.126;2023-03-21T07:41:23;100944.28;;;9.83;90.43
9141;BME280;46330;50.822;7.126;2023-03-21T07:43:51;100936.41;;;9.85;90.78
9141;BME280;46330;50.822;7.126;2023-03-21T07:46:19;100936.31;;;9.94;92.64
9141;BME280;46330;50.822;7.126;2023-03-21T07:48:47;100945.19;;;9.78;93.33
9141;BME280;46330;50.822;7.126;2023-03-21T07:51:15;100947.00;;;9.72;93.48
9141;BME280;46330;50.822;7.126;2023-03-21T07:53:43;100948.69;;;9.80;94.49
9141;BME280;46330;50.822;7.126;2023-03-21T07:56:14;100950.41;;;9.81;95.97
9141;BME280;46330;50.822;7.126;2023-03-21T07:58:43;100946.88;;;9.85;96.93
9141;BME280;46330;50.822;7.126;2023-03-21T08:01:11;100950.31;;;9.90;98.70
9141;BME280;46330;50.822;7.126;2023-03-21T08:03:39;100954.03;;;9.67;99.49
9141;BME280;46330;50.822;7.126;2023-03-21T08:06:08;100950.50;;;9.71;100.00
9141;BME280;46330;50.822;7.126;2023-03-21T08:08:36;100954.81;;;9.77;100.00
9141;BME280;46330;50.822;7.126;2023-03-21T08:11:05;100953.06;;;9.76;100.00
9141;BME280;46330;50.822;7.126;2023-03-21T08:13:33;100955.81;;;9.62;100.00
9141;BME280;46330;50.822;7.126;2023-03-21T08:16:03;100955.78;;;9.65;100.00
9141;BME280;46330;50.822;7.126;2023-03-21T08:18:31;100960.16;;;9.63;100.00
9141;BME280;46330;50.822;7.126;2023-03-21T08:20:59;100951.56;;;9.55;100.00
9141;BME280;46330;50.822;7.126;2023-03-21T08:23:26;100955.94;;;9.52;100.00
9141;BME280;46330;50.822;7.126;2023-03-21T08:25:55;100954.13;;;9.58;100.00
9141;BME280;46330;50.822;7.126;2023-03-21T08:28:23;100949.88;;;9.47;100.00
9141;BME280;46330;50.822;7.126;2023-03-21T08:30:52;100956.81;;;9.51;100.00
9141;BME280;46330;50.822;7.126;2023-03-21T08:33:21;100948.94;;;9.54;100.00
9141;BME280;46330;50.822;7.126;2023-03-21T08:35:50;100948.19;;;9.43;100.00
9141;BME280;46330;50.822;7.126;2023-03-21T08:38:18;100946.47;;;9.37;100.00
9141;BME280;46330;50.822;7.126;2023-03-21T08:40:46;100940.53;;;9.23;100.00
9141;BME280;46330;50.822;7.126;2023-03-21T08:43:14;100944.97;;;9.15;100.00
9141;BME280;46330;50.822;7.126;2023-03-21T08:45:41;100951.00;;;9.20;100.00
9141;BME280;46330;50.822;7.126;2023-03-21T08:48:09;100940.59;;;9.15;100.00
9141;BME280;46330;50.822;7.126;2023-03-21T08:50:39;100939.72;;;9.18;100.00
9141;BME280;46330;50.822;7.126;2023-03-21T08:53:07;100944.91;;;9.19;100.00
9141;BME280;46330;50.822;7.126;2023-03-21T08:55:34;100949.22;;;9.27;100.00
9141;BME280;46330;50.822;7.126;2023-03-21T08:58:04;100946.50;;;9.34;100.00
9141;BME280;46330;50.822;7.126;2023-03-21T09:00:32;100952.59;;;9.36;100.00
9141;BME280;46330;50.822;7.126;2023-03-21T09:03:00;100956.09;;;9.35;100.00
9141;BME280;46330;50.822;7.126;2023-03-21T09:05:30;100962.31;;;9.21;100.00
9141;BME280;46330;50.822;7.126;2023-03-21T09:07:59;100956.97;;;9.34;100.00
9141;BME280;46330;50.822;7.126;2023-03-21T09:10:29;100951.78;;;9.28;100.00
9141;BME280;46330;50.822;7.126;2023-03-21T09:12:57;100947.44;;;9.29;100.00
9141;BME280;46330;50.822;7.126;2023-03-21T09:15:26;100946.59;;;9.25;100.00
9141;BME280;46330;50.822;7.126;2023-03-21T09:17:55;100937.19;;;9.12;100.00
9141;BME280;46330;50.822;7.126;2023-03-21T09:20:38;100952.69;;;9.26;100.00
9141;BME280;46330;50.822;7.126;2023-03-21T09:23:10;100944.03;;;9.19;100.00
9141;BME280;46330;50.822;7.126;2023-03-21T09:25:39;100947.56;;;9.18;100.00
9141;BME280;46330;50.822;7.126;2023-03-21T09:28:08;100945.91;;;9.06;100.00
9141;BME280;46330;50.822;7.126;2023-03-21T09:30:36;100950.31;;;8.97;100.00
9141;BME280;46330;50.822;7.126;2023-03-21T09:33:19;100949.50;;;8.92;100.00
9141;BME280;46330;50.822;7.126;2023-03-21T09:35:52;100943.41;;;8.93;100.00
9141;BME280;46330;50.822;7.126;2023-03-21T09:38:22;100931.28;;;8.90;100.00
9141;BME280;46330;50.822;7.126;2023-03-21T09:41:04;100939.97;;;8.88;100.00
9141;BME280;46330;50.822;7.126;2023-03-21T09:43:48;100942.53;;;8.91;100.00
9141;BME280;46330;50.822;7.126;2023-03-21T09:46:22;100946.91;;;8.89;100.00
9141;BME280;46330;50.822;7.126;2023-03-21T09:48:56;100945.22;;;8.82;100.00
9141;BME280;46330;50.822;7.126;2023-03-21T09:51:28;100953.88;;;8.88;100.00
9141;BME280;46330;50.822;7.126;2023-03-21T09:54:02;100949.44;;;9.01;100.00
9141;BME280;46330;50.822;7.126;2023-03-21T09:56:33;100938.94;;;9.07;100.00
9141;BME280;46330;50.822;7.126;2023-03-21T09:59:04;100938.03;;;9.09;100.00
9141;BME280;46330;50.822;7.126;2023-03-21T10:01:35;100945.72;;;9.26;100.00
9141;BME280;46330;50.822;7.126;2023-03-21T10:04:13;100933.56;;;9.25;100.00
9141;BME280;46330;50.822;7.126;2023-03-21T10:06:47;100942.16;;;9.35;100.00
9141;BME280;46330;50.822;7.126;2023-03-21T10:09:20;100935.25;;;9.29;100.00
9141;BME280;46330;50.822;7.126;2023-03-21T10:11:52;100934.44;;;9.24;100.00
9141;BME280;46330;50.822;7.126;2023-03-21T10:14:27;100934.41;;;9.29;100.00
9141;BME280;46330;50.822;7.126;2023-03-21T10:16:58;100924.78;;;9.34;100.00
9141;BME280;46330;50.822;7.126;2023-03-21T10:19:27;100927.44;;;9.29;100.00
9141;BME280;46330;50.822;7.126;2023-03-21T10:21:55;100924.69;;;9.41;100.00
9141;BME280;46330;50.822;7.126;2023-03-21T10:24:32;100912.56;;;9.37;100.00
9141;BME280;46330;50.822;7.126;2023-03-21T10:27:01;100918.69;;;9.32;100.00
9141;BME280;46330;50.822;7.126;2023-03-21T10:29:32;100916.94;;;9.37;100.00
9141;BME280;46330;50.822;7.126;2023-03-21T10:32:02;100909.97;;;9.34;100.00
9141;BME280;46330;50.822;7.126;2023-03-21T10:34:35;100905.63;;;9.36;100.00
9141;BME280;46330;50.822;7.126;2023-03-21T10:37:03;100903.88;;;9.37;100.00
9141;BME280;46330;50.822;7.126;2023-03-21T10:39:36;100901.25;;;9.40;100.00
9141;BME280;46330;50.822;7.126;2023-03-21T10:42:14;100892.28;;;9.59;100.00
9141;BME280;46330;50.822;7.126;2023-03-21T10:44:46;100882.81;;;9.52;100.00
9141;BME280;46330;50.822;7.126;2023-03-21T10:47:19;100878.28;;;9.66;100.00
9141;BME280;46330;50.822;7.126;2023-03-21T10:49:48;100886.13;;;9.67;100.00
9141;BME280;46330;50.822;7.126;2023-03-21T10:52:34;100876.56;;;9.68;100.00
9141;BME280;46330;50.822;7.126;2023-03-21T10:55:11;100871.22;;;9.77;100.00
9141;BME280;46330;50.822;7.126;2023-03-21T10:57:44;100873.59;;;9.95;100.00
9141;BME280;46330;50.822;7.126;2023-03-21T11:00:17;100866.47;;;10.06;100.00
9141;BME280;46330;50.822;7.126;2023-03-21T11:02:48;100871.59;;;10.12;100.00
9141;BME280;46330;50.822;7.126;2023-03-21T11:05:20;100867.19;;;10.19;100.00
9141;BME280;46330;50.822;7.126;2023-03-21T11:07:57;100870.44;;;10.36;100.00
9141;BME280;46330;50.822;7.126;2023-03-21T11:10:30;100859.97;;;10.36;100.00
9141;BME280;46330;50.822;7.126;2023-03-21T11:13:02;100860.81;;;10.40;100.00
9141;BME280;46330;50.822;7.126;2023-03-21T11:15:39;100864.94;;;10.53;100.00
9141;BME280;46330;50.822;7.126;2023-03-21T11:18:16;100862.50;;;10.41;100.00
9141;BME280;46330;50.822;7.126;2023-03-21T11:20:49;100857.03;;;10.56;100.00
9141;BME280;46330;50.822;7.126;2023-03-21T11:23:18;100856.41;;;10.42;100.00
9141;BME280;46330;50.822;7.126;2023-03-21T11:25:49;100853.00;;;10.37;100.00
9141;BME280;46330;50.822;7.126;2023-03-21T11:28:21;100845.44;;;10.17;100.00
9141;BME280;46330;50.822;7.126;2023-03-21T11:30:51;100846.22;;;10.23;100.00
9141;BME280;46330;50.822;7.126;2023-03-21T11:33:21;100845.53;;;10.08;100.00
9141;BME280;46330;50.822;7.126;2023-03-21T11:36:00;100829.81;;;10.14;100.00
9141;BME280;46330;50.822;7.126;2023-03-21T11:38:31;100840.19;;;10.18;100.00
9141;BME280;46330;50.822;7.126;2023-03-21T11:41:01;100835.91;;;10.14;100.00
9141;BME280;46330;50.822;7.126;2023-03-21T11:43:33;100828.06;;;10.11;100.00
9141;BME280;46330;50.822;7.126;2023-03-21T11:46:06;100814.41;;;9.93;100.00
9141;BME280;46330;50.822;7.126;2023-03-21T11:48:37;100825.66;;;9.96;100.00
9141;BME280;46330;50.822;7.126;2023-03-21T11:51:13;100815.19;;;9.98;100.00
9141;BME280;46330;50.822;7.126;2023-03-21T11:53:48;100809.44;;;9.73;100.00
9141;BME280;46330;50.822;7.126;2023-03-21T11:56:24;100809.47;;;9.70;100.00
9141;BME280;46330;50.822;7.126;2023-03-21T11:59:03;100800.59;;;9.83;100.00
9141;BME280;46330;50.822;7.126;2023-03-21T12:01:43;100813.72;;;9.79;100.00
9141;BME280;46330;50.822;7.126;2023-03-21T12:04:34;100811.06;;;9.83;100.00
9141;BME280;46330;50.822;7.126;2023-03-21T12:07:16;100810.16;;;9.84;100.00
9141;BME280;46330;50.822;7.126;2023-03-21T12:09:52;100804.00;;;9.90;100.00
9141;BME280;46330;50.822;7.126;2023-03-21T12:12:26;100809.91;;;10.02;100.00
9141;BME280;46330;50.822;7.126;2023-03-21T12:15:10;100799.50;;;9.99;100.00
9141;BME280;46330;50.822;7.126;2023-03-21T12:17:48;100798.47;;;10.11;100.00
9141;BME280;46330;50.822;7.126;2023-03-21T12:20:28;100789.72;;;10.12;100.00
9141;BME280;46330;50.822;7.126;2023-03-21T12:23:14;100788.81;;;10.16;100.00
9141;BME280;46330;50.822;7.126;2023-03-21T12:25:50;100788.91;;;10.08;100.00
9141;BME280;46330;50.822;7.126;2023-03-21T12:28:30;100779.13;;;10.24;100.00
9141;BME280;46330;50.822;7.126;2023-03-21T12:31:08;100778.03;;;10.37;100.00
9141;BME280;46330;50.822;7.126;2023-03-21T12:33:53;100770.63;;;10.62;100.00
9141;BME280;46330;50.822;7.126;2023-03-21T12:36:35;100773.59;;;10.42;100.00
9141;BME280;46330;50.822;7.126;2023-03-21T12:39:18;100771.03;;;10.39;100.00
9141;BME280;46330;50.822;7.126;2023-03-21T12:41:59;100765.28;;;10.17;100.00
9141;BME280;46330;50.822;7.126;2023-03-21T12:44:35;100776.66;;;10.12;100.00
9141;BME280;46330;50.822;7.126;2023-03-21T12:47:10;100787.13;;;10.10;100.00
9141;BME280;46330;50.822;7.126;2023-03-21T12:49:42;100780.88;;;10.22;100.00
9141;BME280;46330;50.822;7.126;2023-03-21T12:52:17;100794.41;;;10.48;100.00
9141;BME280;46330;50.822;7.126;2023-03-21T12:54:49;100774.22;;;10.58;100.00
9141;BME280;46330;50.822;7.126;2023-03-21T12:57:21;100785.66;;;10.49;100.00
9141;BME280;46330;50.822;7.126;2023-03-21T12:59:54;100788.25;;;10.51;100.00
9141;BME280;46330;50.822;7.126;2023-03-21T13:02:29;100794.81;;;10.74;100.00
9141;BME280;46330;50.822;7.126;2023-03-21T13:05:04;100787.34;;;10.53;100.00
9141;BME280;46330;50.822;7.126;2023-03-21T13:07:36;100777.09;;;10.41;100.00
9141;BME280;46330;50.822;7.126;2023-03-21T13:10:12;100768.38;;;10.41;100.00
9141;BME280;46330;50.822;7.126;2023-03-21T13:12:44;100771.72;;;10.50;100.00
9141;BME280;46330;50.822;7.126;2023-03-21T13:15:37;100771.44;;;10.65;100.00
9141;BME280;46330;50.822;7.126;2023-03-21T13:18:14;100756.38;;;10.78;100.00
9141;BME280;46330;50.822;7.126;2023-03-21T13:20:45;100757.94;;;10.88;100.00
9141;BME280;46330;50.822;7.126;2023-03-21T13:23:14;100753.78;;;10.78;100.00
9141;BME280;46330;50.822;7.126;2023-03-21T13:25:46;100753.69;;;10.83;100.00
9141;BME280;46330;50.822;7.126;2023-03-21T13:28:18;100743.25;;;10.83;100.00
9141;BME280;46330;50.822;7.126;2023-03-21T13:30:48;100746.91;;;10.72;98.79
9141;BME280;46330;50.822;7.126;2023-03-21T13:33:20;100736.38;;;10.75;100.00
9141;BME280;46330;50.822;7.126;2023-03-21T13:35:54;100723.47;;;10.66;100.00
9141;BME280;46330;50.822;7.126;2023-03-21T13:38:28;100711.91;;;10.79;99.56
9141;BME280;46330;50.822;7.126;2023-03-21T13:40:57;100705.69;;;10.85;99.47
9141;BME280;46330;50.822;7.126;2023-03-21T13:43:42;100706.63;;;10.81;99.14
9141;BME280;46330;50.822;7.126;2023-03-21T13:46:12;100716.31;;;10.76;99.16
9141;BME280;46330;50.822;7.126;2023-03-21T13:48:44;100721.38;;;10.85;99.89